sensor_id;sensor_type;location;lat;lon;timestamp;P1;durP1;ratioP1;P2;durP2;ratioP2
22829;SDS011;11581;51.250;6.778;2022-10-29T00:01:03;12.48;;;5.28;;
22829;SDS011;11581;51.250;6.778;2022-10-29T00:03:33;15.07;;;4.90;;
22829;SDS011;11581;51.250;6.778;2022-10-29T00:06:01;19.13;;;5.63;;
22829;SDS011;11581;51.250;6.778;2022-10-29T00:08:30;11.90;;;4.72;;
22829;SDS011;11581;51.250;6.778;2022-10-29T00:11:03;15.38;;;5.20;;
22829;SDS011;11581;51.250;6.778;2022-10-29T00:13:31;14.68;;;5.15;;
22829;SDS011;11581;51.250;6.778;2022-10-29T00:15:59;14.23;;;4.72;;
22829;SDS011;11581;51.250;6.778;2022-10-29T00:18:29;17.77;;;5.53;;
22829;SDS011;11581;51.250;6.778;2022-10-29T00:21:01;11.90;;;4.93;;
22829;SDS011;11581;51.250;6.778;2022-10-29T00:23:29;12.55;;;4.97;;
22829;SDS011;11581;51.250;6.778;2022-10-29T00:25:56;11.43;;;4.80;;
22829;SDS011;11581;51.250;6.778;2022-10-29T00:28:26;12.15;;;4.72;;
22829;SDS011;11581;51.250;6.778;2022-10-29T00:30:54;17.77;;;5.28;;
22829;SDS011;11581;51.250;6.778;2022-10-29T00:33:21;9.68;;;4.65;;
22829;SDS011;11581;51.250;6.778;2022-10-29T00:35:55;12.98;;;4.97;;
22829;SDS011;11581;51.250;6.778;2022-10-29T00:38:23;10.00;;;5.13;;
22829;SDS011;11581;51.250;6.778;2022-10-29T00:40:51;12.88;;;5.72;;
22829;SDS011;11581;51.250;6.778;2022-10-29T00:43:20;15.15;;;5.22;;
22829;SDS011;11581;51.250;6.778;2022-10-29T00:45:49;12.27;;;4.82;;
22829;SDS011;11581;51.250;6.778;2022-10-29T00:48:20;12.05;;;4.95;;
22829;SDS011;11581;51.250;6.778;2022-10-29T00:50:50;16.10;;;5.07;;
22829;SDS011;11581;51.250;6.778;2022-10-29T00:53:18;10.32;;;4.93;;
22829;SDS011;11581;51.250;6.778;2022-10-29T00:55:50;9.73;;;4.35;;
22829;SDS011;11581;51.250;6.778;2022-10-29T00:58:18;12.15;;;5.53;;
22829;SDS011;11581;51.250;6.778;2022-10-29T01:00:45;13.57;;;5.10;;
22829;SDS011;11581;51.250;6.778;2022-10-29T01:03:12;11.25;;;4.85;;
22829;SDS011;11581;51.250;6.778;2022-10-29T01:05:39;13.52;;;5.28;;
22829;SDS011;11581;51.250;6.778;2022-10-29T01:08:09;9.50;;;4.32;;
22829;SDS011;11581;51.250;6.778;2022-10-29T01:10:39;15.93;;;5.07;;
22829;SDS011;11581;51.250;6.778;2022-10-29T01:13:19;15.50;;;5.18;;
22829;SDS011;11581;51.250;6.778;2022-10-29T01:15:59;12.85;;;4.90;;
22829;SDS011;11581;51.250;6.778;2022-10-29T01:18:36;10.20;;;4.25;;
22829;SDS011;11581;51.250;6.778;2022-10-29T01:27:18;9.23;;;4.57;;
22829;SDS011;11581;51.250;6.778;2022-10-29T01:30:22;15.20;;;4.60;;
22829;SDS011;11581;51.250;6.778;2022-10-29T01:33:07;18.42;;;4.82;;
22829;SDS011;11581;51.250;6.778;2022-10-29T01:35:44;12.02;;;4.40;;
22829;SDS011;11581;51.250;6.778;2022-10-29T01:38:20;11.15;;;4.15;;
22829;SDS011;11581;51.250;6.778;2022-10-29T01:40:53;14.17;;;5.27;;
22829;SDS011;11581;51.250;6.778;2022-10-29T01:45:54;12.82;;;4.20;;
22829;SDS011;11581;51.250;6.778;2022-10-29T01:48:30;8.43;;;4.25;;
22829;SDS011;11581;51.250;6.778;2022-10-29T01:51:01;10.27;;;4.30;;
22829;SDS011;11581;51.250;6.778;2022-10-29T01:53:33;7.85;;;4.20;;
22829;SDS011;11581;51.250;6.778;2022-10-29T01:56:02;9.27;;;4.20;;
22829;SDS011;11581;51.250;6.778;2022-10-29T01:58:29;23.33;;;6.38;;
22829;SDS011;11581;51.250;6.778;2022-10-29T02:01:00;14.63;;;5.03;;
22829;SDS011;11581;51.250;6.778;2022-10-29T02:03:42;10.15;;;4.22;;
22829;SDS011;11581;51.250;6.778;2022-10-29T02:06:18;12.38;;;4.22;;
22829;SDS011;11581;51.250;6.778;2022-10-29T02:08:58;17.85;;;4.65;;
22829;SDS011;11581;51.250;6.778;2022-10-29T02:11:36;13.57;;;4.90;;
22829;SDS011;11581;51.250;6.778;2022-10-29T02:14:11;25.52;;;4.85;;
22829;SDS011;11581;51.250;6.778;2022-10-29T02:16:44;11.38;;;4.85;;
22829;SDS011;11581;51.250;6.778;2022-10-29T02:19:15;13.63;;;4.35;;
22829;SDS011;11581;51.250;6.778;2022-10-29T02:21:43;21.27;;;4.90;;
22829;SDS011;11581;51.250;6.778;2022-10-29T02:24:10;10.07;;;4.90;;
22829;SDS011;11581;51.250;6.778;2022-10-29T02:26:37;13.77;;;4.88;;
22829;SDS011;11581;51.250;6.778;2022-10-29T02:29:04;13.65;;;4.15;;
22829;SDS011;11581;51.250;6.778;2022-10-29T02:31:31;10.40;;;4.38;;
22829;SDS011;11581;51.250;6.778;2022-10-29T02:34:00;8.70;;;4.25;;
22829;SDS011;11581;51.250;6.778;2022-10-29T02:36:28;14.25;;;5.20;;
22829;SDS011;11581;51.250;6.778;2022-10-29T02:38:55;15.73;;;4.88;;
22829;SDS011;11581;51.250;6.778;2022-10-29T02:41:22;12.55;;;4.97;;
22829;SDS011;11581;51.250;6.778;2022-10-29T02:43:49;10.80;;;4.43;;
22829;SDS011;11581;51.250;6.778;2022-10-29T02:46:17;13.57;;;4.43;;
22829;SDS011;11581;51.250;6.778;2022-10-29T02:48:45;11.65;;;4.20;;
22829;SDS011;11581;51.250;6.778;2022-10-29T02:51:13;20.50;;;5.07;;
22829;SDS011;11581;51.250;6.778;2022-10-29T02:53:42;10.23;;;4.03;;
22829;SDS011;11581;51.250;6.778;2022-10-29T02:56:09;10.93;;;4.32;;
22829;SDS011;11581;51.250;6.778;2022-10-29T02:58:36;12.07;;;3.85;;
22829;SDS011;11581;51.250;6.778;2022-10-29T03:01:04;10.95;;;4.05;;
22829;SDS011;11581;51.250;6.778;2022-10-29T03:03:31;15.98;;;4.88;;
22829;SDS011;11581;51.250;6.778;2022-10-29T03:05:58;11.50;;;5.70;;
22829;SDS011;11581;51.250;6.778;2022-10-29T03:08:26;13.52;;;4.63;;
22829;SDS011;11581;51.250;6.778;2022-10-29T03:10:55;15.23;;;5.70;;
22829;SDS011;11581;51.250;6.778;2022-10-29T03:13:22;11.23;;;4.85;;
22829;SDS011;11581;51.250;6.778;2022-10-29T03:15:49;11.57;;;4.50;;
22829;SDS011;11581;51.250;6.778;2022-10-29T03:18:15;14.23;;;4.80;;
22829;SDS011;11581;51.250;6.778;2022-10-29T03:20:42;8.15;;;4.43;;
22829;SDS011;11581;51.250;6.778;2022-10-29T03:23:11;10.57;;;4.63;;
22829;SDS011;11581;51.250;6.778;2022-10-29T03:25:38;18.17;;;5.32;;
22829;SDS011;11581;51.250;6.778;2022-10-29T03:28:07;15.48;;;5.13;;
22829;SDS011;11581;51.250;6.778;2022-10-29T03:30:34;12.80;;;5.50;;
22829;SDS011;11581;51.250;6.778;2022-10-29T03:33:01;13.85;;;5.07;;
22829;SDS011;11581;51.250;6.778;2022-10-29T03:35:27;18.38;;;5.05;;
22829;SDS011;11581;51.250;6.778;2022-10-29T03:37:56;11.43;;;4.78;;
22829;SDS011;11581;51.250;6.778;2022-10-29T03:40:25;11.60;;;4.85;;
22829;SDS011;11581;51.250;6.778;2022-10-29T03:42:52;9.57;;;4.57;;
22829;SDS011;11581;51.250;6.778;2022-10-29T03:45:21;9.98;;;4.80;;
22829;SDS011;11581;51.250;6.778;2022-10-29T03:47:48;11.55;;;4.57;;
22829;SDS011;11581;51.250;6.778;2022-10-29T03:50:16;12.38;;;5.15;;
22829;SDS011;11581;51.250;6.778;2022-10-29T03:52:44;15.32;;;5.10;;
22829;SDS011;11581;51.250;6.778;2022-10-29T03:55:11;9.48;;;4.10;;
22829;SDS011;11581;51.250;6.778;2022-10-29T03:57:38;13.57;;;4.35;;
22829;SDS011;11581;51.250;6.778;2022-10-29T04:00:05;10.23;;;4.25;;
22829;SDS011;11581;51.250;6.778;2022-10-29T04:02:40;13.90;;;5.28;;
22829;SDS011;11581;51.250;6.778;2022-10-29T04:05:08;9.88;;;4.32;;
22829;SDS011;11581;51.250;6.778;2022-10-29T04:07:35;9.32;;;3.67;;
22829;SDS011;11581;51.250;6.778;2022-10-29T04:10:02;10.07;;;4.03;;
22829;SDS011;11581;51.250;6.778;2022-10-29T04:12:32;10.52;;;4.63;;
22829;SDS011;11581;51.250;6.778;2022-10-29T04:14:59;14.02;;;3.97;;
22829;SDS011;11581;51.250;6.778;2022-10-29T04:17:26;12.75;;;4.25;;
22829;SDS011;11581;51.250;6.778;2022-10-29T04:19:55;10.05;;;4.38;;
22829;SDS011;11581;51.250;6.778;2022-10-29T04:22:22;10.05;;;3.97;;
22829;SDS011;11581;51.250;6.778;2022-10-29T04:24:49;9.38;;;4.13;;
22829;SDS011;11581;51.250;6.778;2022-10-29T04:27:16;11.15;;;4.10;;
22829;SDS011;11581;51.250;6.778;2022-10-29T04:29:43;14.90;;;4.28;;
22829;SDS011;11581;51.250;6.778;2022-10-29T04:32:12;14.45;;;4.35;;
22829;SDS011;11581;51.250;6.778;2022-10-29T04:34:39;12.10;;;4.13;;
22829;SDS011;11581;51.250;6.778;2022-10-29T04:37:07;12.55;;;4.38;;
22829;SDS011;11581;51.250;6.778;2022-10-29T04:39:33;12.32;;;4.45;;
22829;SDS011;11581;51.250;6.778;2022-10-29T04:42:01;10.27;;;3.88;;
22829;SDS011;11581;51.250;6.778;2022-10-29T04:44:27;8.40;;;3.97;;
22829;SDS011;11581;51.250;6.778;2022-10-29T04:46:54;10.70;;;3.50;;
22829;SDS011;11581;51.250;6.778;2022-10-29T04:49:21;10.32;;;4.22;;
22829;SDS011;11581;51.250;6.778;2022-10-29T04:51:47;16.65;;;4.07;;
22829;SDS011;11581;51.250;6.778;2022-10-29T04:54:16;15.93;;;4.45;;
22829;SDS011;11581;51.250;6.778;2022-10-29T04:56:42;8.27;;;4.15;;
22829;SDS011;11581;51.250;6.778;2022-10-29T04:59:09;9.80;;;4.03;;
22829;SDS011;11581;51.250;6.778;2022-10-29T05:01:36;8.95;;;4.07;;
22829;SDS011;11581;51.250;6.778;2022-10-29T05:04:03;7.88;;;3.90;;
22829;SDS011;11581;51.250;6.778;2022-10-29T05:06:32;9.77;;;3.60;;
22829;SDS011;11581;51.250;6.778;2022-10-29T05:08:59;13.45;;;4.88;;
22829;SDS011;11581;51.250;6.778;2022-10-29T05:11:27;12.95;;;4.28;;
22829;SDS011;11581;51.250;6.778;2022-10-29T05:13:54;12.98;;;4.38;;
22829;SDS011;11581;51.250;6.778;2022-10-29T05:16:21;9.98;;;3.60;;
22829;SDS011;11581;51.250;6.778;2022-10-29T05:18:48;9.30;;;3.40;;
22829;SDS011;11581;51.250;6.778;2022-10-29T05:21:15;14.65;;;3.60;;
22829;SDS011;11581;51.250;6.778;2022-10-29T05:23:42;7.45;;;3.83;;
22829;SDS011;11581;51.250;6.778;2022-10-29T05:26:10;9.25;;;3.40;;
22829;SDS011;11581;51.250;6.778;2022-10-29T05:28:38;13.23;;;3.72;;
22829;SDS011;11581;51.250;6.778;2022-10-29T05:31:06;9.55;;;3.58;;
22829;SDS011;11581;51.250;6.778;2022-10-29T05:33:33;14.27;;;3.83;;
22829;SDS011;11581;51.250;6.778;2022-10-29T05:36:00;8.73;;;3.47;;
22829;SDS011;11581;51.250;6.778;2022-10-29T05:38:27;9.23;;;3.63;;
22829;SDS011;11581;51.250;6.778;2022-10-29T05:40:56;10.57;;;3.80;;
22829;SDS011;11581;51.250;6.778;2022-10-29T05:43:25;10.13;;;3.50;;
22829;SDS011;11581;51.250;6.778;2022-10-29T05:45:53;7.93;;;3.05;;
22829;SDS011;11581;51.250;6.778;2022-10-29T05:48:20;7.65;;;3.17;;
22829;SDS011;11581;51.250;6.778;2022-10-29T05:50:47;10.05;;;3.67;;
22829;SDS011;11581;51.250;6.778;2022-10-29T05:53:14;9.07;;;3.95;;
22829;SDS011;11581;51.250;6.778;2022-10-29T05:55:41;13.07;;;3.45;;
22829;SDS011;11581;51.250;6.778;2022-10-29T05:58:11;13.25;;;3.60;;
22829;SDS011;11581;51.250;6.778;2022-10-29T06:00:39;8.45;;;3.25;;
22829;SDS011;11581;51.250;6.778;2022-10-29T06:03:11;9.80;;;3.70;;
22829;SDS011;11581;51.250;6.778;2022-10-29T06:05:39;10.30;;;3.35;;
22829;SDS011;11581;51.250;6.778;2022-10-29T06:08:06;9.07;;;3.65;;
22829;SDS011;11581;51.250;6.778;2022-10-29T06:10:33;17.27;;;3.85;;
22829;SDS011;11581;51.250;6.778;2022-10-29T06:13:01;9.82;;;3.60;;
22829;SDS011;11581;51.250;6.778;2022-10-29T06:15:28;11.75;;;3.58;;
22829;SDS011;11581;51.250;6.778;2022-10-29T06:17:55;11.52;;;3.65;;
22829;SDS011;11581;51.250;6.778;2022-10-29T06:20:23;11.73;;;3.80;;
22829;SDS011;11581;51.250;6.778;2022-10-29T06:22:54;11.10;;;3.40;;
22829;SDS011;11581;51.250;6.778;2022-10-29T06:25:23;6.68;;;3.25;;
22829;SDS011;11581;51.250;6.778;2022-10-29T06:27:58;11.68;;;3.65;;
22829;SDS011;11581;51.250;6.778;2022-10-29T06:30:26;6.57;;;3.35;;
22829;SDS011;11581;51.250;6.778;2022-10-29T06:32:53;10.27;;;3.25;;
22829;SDS011;11581;51.250;6.778;2022-10-29T06:35:20;10.35;;;4.20;;
22829;SDS011;11581;51.250;6.778;2022-10-29T06:37:49;15.23;;;4.38;;
22829;SDS011;11581;51.250;6.778;2022-10-29T06:40:15;8.73;;;3.47;;
22829;SDS011;11581;51.250;6.778;2022-10-29T06:42:43;11.52;;;3.92;;
22829;SDS011;11581;51.250;6.778;2022-10-29T06:45:09;7.93;;;3.70;;
22829;SDS011;11581;51.250;6.778;2022-10-29T06:47:39;10.98;;;3.40;;
22829;SDS011;11581;51.250;6.778;2022-10-29T06:50:08;10.73;;;3.92;;
22829;SDS011;11581;51.250;6.778;2022-10-29T06:52:36;10.77;;;3.72;;
22829;SDS011;11581;51.250;6.778;2022-10-29T06:55:07;9.52;;;3.67;;
22829;SDS011;11581;51.250;6.778;2022-10-29T06:57:34;7.82;;;3.42;;
22829;SDS011;11581;51.250;6.778;2022-10-29T07:00:02;9.68;;;3.55;;
22829;SDS011;11581;51.250;6.778;2022-10-29T07:02:30;14.57;;;4.10;;
22829;SDS011;11581;51.250;6.778;2022-10-29T07:04:57;10.57;;;3.72;;
22829;SDS011;11581;51.250;6.778;2022-10-29T07:07:26;7.03;;;3.13;;
22829;SDS011;11581;51.250;6.778;2022-10-29T07:09:53;8.90;;;3.08;;
22829;SDS011;11581;51.250;6.778;2022-10-29T07:12:22;10.70;;;3.80;;
22829;SDS011;11581;51.250;6.778;2022-10-29T07:14:49;10.73;;;3.70;;
22829;SDS011;11581;51.250;6.778;2022-10-29T07:17:16;13.27;;;4.60;;
22829;SDS011;11581;51.250;6.778;2022-10-29T07:19:43;10.13;;;3.33;;
22829;SDS011;11581;51.250;6.778;2022-10-29T07:22:10;7.78;;;3.45;;
22829;SDS011;11581;51.250;6.778;2022-10-29T07:24:37;7.82;;;3.70;;
22829;SDS011;11581;51.250;6.778;2022-10-29T07:27:03;11.30;;;3.65;;
22829;SDS011;11581;51.250;6.778;2022-10-29T07:29:32;10.32;;;3.33;;
22829;SDS011;11581;51.250;6.778;2022-10-29T07:32:00;16.45;;;3.88;;
22829;SDS011;11581;51.250;6.778;2022-10-29T07:34:27;10.00;;;3.80;;
22829;SDS011;11581;51.250;6.778;2022-10-29T07:36:54;10.85;;;3.95;;
22829;SDS011;11581;51.250;6.778;2022-10-29T07:39:21;8.00;;;3.33;;
22829;SDS011;11581;51.250;6.778;2022-10-29T07:41:48;11.63;;;3.17;;
22829;SDS011;11581;51.250;6.778;2022-10-29T07:44:15;18.30;;;4.10;;
22829;SDS011;11581;51.250;6.778;2022-10-29T07:46:43;11.23;;;3.97;;
22829;SDS011;11581;51.250;6.778;2022-10-29T07:49:10;7.95;;;3.00;;
22829;SDS011;11581;51.250;6.778;2022-10-29T07:51:37;8.05;;;3.35;;
22829;SDS011;11581;51.250;6.778;2022-10-29T07:54:12;9.50;;;3.10;;
22829;SDS011;11581;51.250;6.778;2022-10-29T07:56:38;9.77;;;3.38;;
22829;SDS011;11581;51.250;6.778;2022-10-29T07:59:05;10.55;;;2.88;;
22829;SDS011;11581;51.250;6.778;2022-10-29T08:01:34;7.95;;;3.45;;
22829;SDS011;11581;51.250;6.778;2022-10-29T08:04:16;8.75;;;3.25;;
22829;SDS011;11581;51.250;6.778;2022-10-29T08:06:43;10.90;;;3.03;;
22829;SDS011;11581;51.250;6.778;2022-10-29T08:09:14;7.32;;;3.15;;
22829;SDS011;11581;51.250;6.778;2022-10-29T08:11:41;12.60;;;3.25;;
22829;SDS011;11581;51.250;6.778;2022-10-29T08:14:11;8.10;;;3.28;;
22829;SDS011;11581;51.250;6.778;2022-10-29T08:16:38;9.43;;;2.97;;
22829;SDS011;11581;51.250;6.778;2022-10-29T08:19:05;9.82;;;3.20;;
22829;SDS011;11581;51.250;6.778;2022-10-29T08:21:33;16.08;;;3.75;;
22829;SDS011;11581;51.250;6.778;2022-10-29T08:24:00;9.63;;;3.35;;
22829;SDS011;11581;51.250;6.778;2022-10-29T08:26:27;12.88;;;2.97;;
22829;SDS011;11581;51.250;6.778;2022-10-29T08:28:54;17.13;;;3.47;;
22829;SDS011;11581;51.250;6.778;2022-10-29T08:31:25;6.70;;;2.80;;
22829;SDS011;11581;51.250;6.778;2022-10-29T08:33:53;6.90;;;2.75;;
22829;SDS011;11581;51.250;6.778;2022-10-29T08:36:21;7.55;;;3.22;;
22829;SDS011;11581;51.250;6.778;2022-10-29T08:39:03;15.95;;;3.83;;
22829;SDS011;11581;51.250;6.778;2022-10-29T08:41:34;9.85;;;2.95;;
22829;SDS011;11581;51.250;6.778;2022-10-29T08:44:14;8.45;;;3.40;;
22829;SDS011;11581;51.250;6.778;2022-10-29T08:46:53;9.55;;;3.47;;
22829;SDS011;11581;51.250;6.778;2022-10-29T08:49:24;10.57;;;3.63;;
22829;SDS011;11581;51.250;6.778;2022-10-29T08:51:59;7.70;;;3.03;;
22829;SDS011;11581;51.250;6.778;2022-10-29T08:54:33;12.73;;;3.42;;
22829;SDS011;11581;51.250;6.778;2022-10-29T08:57:04;10.27;;;3.35;;
22829;SDS011;11581;51.250;6.778;2022-10-29T08:59:34;12.00;;;3.25;;
22829;SDS011;11581;51.250;6.778;2022-10-29T09:02:08;10.25;;;3.05;;
22829;SDS011;11581;51.250;6.778;2022-10-29T09:04:41;12.50;;;2.97;;
22829;SDS011;11581;51.250;6.778;2022-10-29T09:07:12;11.93;;;2.90;;
22829;SDS011;11581;51.250;6.778;2022-10-29T09:10:01;12.27;;;3.78;;
22829;SDS011;11581;51.250;6.778;2022-10-29T09:12:44;8.68;;;3.28;;
22829;SDS011;11581;51.250;6.778;2022-10-29T09:15:30;7.95;;;3.10;;
22829;SDS011;11581;51.250;6.778;2022-10-29T09:18:13;15.85;;;3.20;;
22829;SDS011;11581;51.250;6.778;2022-10-29T09:20:51;8.73;;;3.38;;
22829;SDS011;11581;51.250;6.778;2022-10-29T09:23:29;12.98;;;3.58;;
22829;SDS011;11581;51.250;6.778;2022-10-29T09:26:18;8.48;;;2.83;;
22829;SDS011;11581;51.250;6.778;2022-10-29T09:28:53;7.45;;;2.88;;
22829;SDS011;11581;51.250;6.778;2022-10-29T09:31:29;13.50;;;3.35;;
22829;SDS011;11581;51.250;6.778;2022-10-29T09:34:03;8.55;;;3.00;;
22829;SDS011;11581;51.250;6.778;2022-10-29T09:36:37;13.32;;;3.80;;
22829;SDS011;11581;51.250;6.778;2022-10-29T09:39:08;11.30;;;3.10;;
22829;SDS011;11581;51.250;6.778;2022-10-29T09:41:39;15.27;;;4.28;;
22829;SDS011;11581;51.250;6.778;2022-10-29T09:44:10;9.65;;;2.60;;
22829;SDS011;11581;51.250;6.778;2022-10-29T09:46:44;18.60;;;3.22;;
22829;SDS011;11581;51.250;6.778;2022-10-29T09:49:21;10.52;;;3.35;;
22829;SDS011;11581;51.250;6.778;2022-10-29T09:51:57;14.88;;;3.30;;
22829;SDS011;11581;51.250;6.778;2022-10-29T09:54:29;9.93;;;3.20;;
22829;SDS011;11581;51.250;6.778;2022-10-29T09:57:00;7.82;;;2.60;;
22829;SDS011;11581;51.250;6.778;2022-10-29T09:59:30;11.77;;;3.60;;
22829;SDS011;11581;51.250;6.778;2022-10-29T10:02:01;10.60;;;3.75;;
22829;SDS011;11581;51.250;6.778;2022-10-29T10:04:42;13.40;;;3.60;;
22829;SDS011;11581;51.250;6.778;2022-10-29T10:07:15;10.73;;;3.65;;
22829;SDS011;11581;51.250;6.778;2022-10-29T10:09:50;15.43;;;3.53;;
22829;SDS011;11581;51.250;6.778;2022-10-29T10:12:21;8.73;;;3.05;;
22829;SDS011;11581;51.250;6.778;2022-10-29T10:15:04;14.90;;;3.58;;
22829;SDS011;11581;51.250;6.778;2022-10-29T10:17:53;10.90;;;3.13;;
22829;SDS011;11581;51.250;6.778;2022-10-29T10:20:25;8.60;;;3.45;;
22829;SDS011;11581;51.250;6.778;2022-10-29T10:25:50;8.50;;;2.92;;
22829;SDS011;11581;51.250;6.778;2022-10-29T10:28:20;11.07;;;3.38;;
22829;SDS011;11581;51.250;6.778;2022-10-29T10:33:42;12.10;;;3.75;;
22829;SDS011;11581;51.250;6.778;2022-10-29T10:36:13;8.25;;;2.97;;
22829;SDS011;11581;51.250;6.778;2022-10-29T10:38:42;7.90;;;2.60;;
22829;SDS011;11581;51.250;6.778;2022-10-29T10:41:12;13.07;;;3.63;;
22829;SDS011;11581;51.250;6.778;2022-10-29T10:43:43;10.85;;;3.42;;
22829;SDS011;11581;51.250;6.778;2022-10-29T10:46:12;10.73;;;3.15;;
22829;SDS011;11581;51.250;6.778;2022-10-29T10:51:22;16.92;;;2.65;;
22829;SDS011;11581;51.250;6.778;2022-10-29T10:53:53;16.08;;;3.53;;
22829;SDS011;11581;51.250;6.778;2022-10-29T10:56:20;12.55;;;2.92;;
22829;SDS011;11581;51.250;6.778;2022-10-29T10:58:50;9.32;;;2.85;;
22829;SDS011;11581;51.250;6.778;2022-10-29T11:01:24;6.05;;;2.67;;
22829;SDS011;11581;51.250;6.778;2022-10-29T11:03:57;8.18;;;3.08;;
22829;SDS011;11581;51.250;6.778;2022-10-29T11:06:32;9.07;;;2.95;;
22829;SDS011;11581;51.250;6.778;2022-10-29T11:09:03;11.70;;;3.33;;
22829;SDS011;11581;51.250;6.778;2022-10-29T11:11:37;10.52;;;2.83;;
22829;SDS011;11581;51.250;6.778;2022-10-29T11:14:11;11.90;;;3.33;;
22829;SDS011;11581;51.250;6.778;2022-10-29T11:16:42;8.13;;;3.55;;
22829;SDS011;11581;51.250;6.778;2022-10-29T11:19:14;10.48;;;3.40;;
22829;SDS011;11581;51.250;6.778;2022-10-29T11:21:50;5.63;;;2.28;;
22829;SDS011;11581;51.250;6.778;2022-10-29T11:24:25;6.80;;;2.80;;
22829;SDS011;11581;51.250;6.778;2022-10-29T11:27:03;10.13;;;3.03;;
22829;SDS011;11581;51.250;6.778;2022-10-29T11:29:39;14.68;;;3.70;;
22829;SDS011;11581;51.250;6.778;2022-10-29T11:32:11;12.48;;;3.80;;
22829;SDS011;11581;51.250;6.778;2022-10-29T11:34:45;8.95;;;2.83;;
22829;SDS011;11581;51.250;6.778;2022-10-29T11:37:20;16.65;;;3.45;;
22829;SDS011;11581;51.250;6.778;2022-10-29T11:39:56;10.57;;;2.40;;
22829;SDS011;11581;51.250;6.778;2022-10-29T11:42:28;14.27;;;3.20;;
22829;SDS011;11581;51.250;6.778;2022-10-29T11:44:57;12.43;;;2.40;;
22829;SDS011;11581;51.250;6.778;2022-10-29T11:47:36;14.35;;;2.70;;
22829;SDS011;11581;51.250;6.778;2022-10-29T11:50:18;8.45;;;3.42;;
22829;SDS011;11581;51.250;6.778;2022-10-29T11:52:54;7.18;;;2.67;;
22829;SDS011;11581;51.250;6.778;2022-10-29T11:55:35;6.63;;;2.40;;
22829;SDS011;11581;51.250;6.778;2022-10-29T11:58:09;8.25;;;2.53;;
22829;SDS011;11581;51.250;6.778;2022-10-29T12:00:47;7.80;;;3.03;;
22829;SDS011;11581;51.250;6.778;2022-10-29T12:03:33;9.02;;;2.78;;
22829;SDS011;11581;51.250;6.778;2022-10-29T12:06:12;8.65;;;2.92;;
22829;SDS011;11581;51.250;6.778;2022-10-29T12:08:49;12.15;;;3.28;;
22829;SDS011;11581;51.250;6.778;2022-10-29T12:11:30;9.63;;;3.00;;
22829;SDS011;11581;51.250;6.778;2022-10-29T12:14:06;9.20;;;3.35;;
22829;SDS011;11581;51.250;6.778;2022-10-29T12:16:50;11.52;;;3.35;;
22829;SDS011;11581;51.250;6.778;2022-10-29T12:19:28;9.88;;;3.25;;
22829;SDS011;11581;51.250;6.778;2022-10-29T12:22:04;10.38;;;3.15;;
22829;SDS011;11581;51.250;6.778;2022-10-29T12:24:46;13.45;;;2.58;;
22829;SDS011;11581;51.250;6.778;2022-10-29T12:27:26;9.50;;;2.53;;
22829;SDS011;11581;51.250;6.778;2022-10-29T12:30:03;11.98;;;2.30;;
22829;SDS011;11581;51.250;6.778;2022-10-29T12:32:36;8.73;;;2.60;;
22829;SDS011;11581;51.250;6.778;2022-10-29T12:35:13;15.13;;;3.70;;
22829;SDS011;11581;51.250;6.778;2022-10-29T12:37:45;7.53;;;2.80;;
22829;SDS011;11581;51.250;6.778;2022-10-29T12:40:31;8.00;;;2.70;;
22829;SDS011;11581;51.250;6.778;2022-10-29T12:43:01;13.48;;;3.10;;
22829;SDS011;11581;51.250;6.778;2022-10-29T12:45:32;14.73;;;3.28;;
22829;SDS011;11581;51.250;6.778;2022-10-29T12:48:07;8.25;;;3.00;;
22829;SDS011;11581;51.250;6.778;2022-10-29T12:50:43;13.65;;;2.90;;
22829;SDS011;11581;51.250;6.778;2022-10-29T12:53:18;12.25;;;2.97;;
22829;SDS011;11581;51.250;6.778;2022-10-29T12:55:55;8.70;;;2.38;;
22829;SDS011;11581;51.250;6.778;2022-10-29T12:58:42;10.73;;;3.10;;
22829;SDS011;11581;51.250;6.778;2022-10-29T13:04:24;7.82;;;2.50;;
22829;SDS011;11581;51.250;6.778;2022-10-29T13:07:03;10.38;;;3.38;;
22829;SDS011;11581;51.250;6.778;2022-10-29T13:09:47;6.60;;;2.63;;
22829;SDS011;11581;51.250;6.778;2022-10-29T13:12:51;10.68;;;2.88;;
22829;SDS011;11581;51.250;6.778;2022-10-29T13:15:27;8.00;;;2.53;;
22829;SDS011;11581;51.250;6.778;2022-10-29T13:17:56;8.98;;;3.05;;
22829;SDS011;11581;51.250;6.778;2022-10-29T13:20:32;8.38;;;3.10;;
22829;SDS011;11581;51.250;6.778;2022-10-29T13:23:02;21.02;;;3.30;;
22829;SDS011;11581;51.250;6.778;2022-10-29T13:37:35;14.20;;;3.63;;
22829;SDS011;11581;51.250;6.778;2022-10-29T13:40:41;8.50;;;2.92;;
22829;SDS011;11581;51.250;6.778;2022-10-29T13:43:26;15.80;;;3.65;;
22829;SDS011;11581;51.250;6.778;2022-10-29T13:49:09;22.48;;;3.50;;
22829;SDS011;11581;51.250;6.778;2022-10-29T13:51:43;12.88;;;3.00;;
22829;SDS011;11581;51.250;6.778;2022-10-29T13:54:16;14.95;;;3.42;;
22829;SDS011;11581;51.250;6.778;2022-10-29T13:56:50;8.88;;;2.65;;
22829;SDS011;11581;51.250;6.778;2022-10-29T13:59:22;10.50;;;2.58;;
22829;SDS011;11581;51.250;6.778;2022-10-29T14:02:12;10.77;;;2.92;;
22829;SDS011;11581;51.250;6.778;2022-10-29T14:04:45;11.48;;;3.33;;
22829;SDS011;11581;51.250;6.778;2022-10-29T14:07:17;21.45;;;3.35;;
22829;SDS011;11581;51.250;6.778;2022-10-29T14:09:50;11.60;;;3.30;;
22829;SDS011;11581;51.250;6.778;2022-10-29T14:12:23;11.80;;;3.38;;
22829;SDS011;11581;51.250;6.778;2022-10-29T14:14:56;10.90;;;2.95;;
22829;SDS011;11581;51.250;6.778;2022-10-29T14:19:59;12.85;;;2.80;;
22829;SDS011;11581;51.250;6.778;2022-10-29T14:22:30;9.68;;;2.65;;
22829;SDS011;11581;51.250;6.778;2022-10-29T14:25:00;9.50;;;3.17;;
22829;SDS011;11581;51.250;6.778;2022-10-29T14:27:29;13.25;;;2.80;;
22829;SDS011;11581;51.250;6.778;2022-10-29T14:32:40;6.57;;;2.35;;
22829;SDS011;11581;51.250;6.778;2022-10-29T14:35:13;7.90;;;2.55;;
22829;SDS011;11581;51.250;6.778;2022-10-29T14:37:41;13.68;;;2.78;;
22829;SDS011;11581;51.250;6.778;2022-10-29T14:40:13;12.63;;;3.33;;
22829;SDS011;11581;51.250;6.778;2022-10-29T14:42:43;12.85;;;3.53;;
22829;SDS011;11581;51.250;6.778;2022-10-29T14:45:15;12.00;;;2.88;;
22829;SDS011;11581;51.250;6.778;2022-10-29T14:47:48;11.60;;;3.42;;
22829;SDS011;11581;51.250;6.778;2022-10-29T14:50:19;11.23;;;3.10;;
22829;SDS011;11581;51.250;6.778;2022-10-29T14:52:49;7.70;;;2.75;;
22829;SDS011;11581;51.250;6.778;2022-10-29T14:55:21;9.82;;;2.95;;
22829;SDS011;11581;51.250;6.778;2022-10-29T14:57:50;9.95;;;3.30;;
22829;SDS011;11581;51.250;6.778;2022-10-29T15:00:26;13.63;;;3.33;;
22829;SDS011;11581;51.250;6.778;2022-10-29T15:02:56;9.85;;;3.30;;
22829;SDS011;11581;51.250;6.778;2022-10-29T15:05:24;20.17;;;3.75;;
22829;SDS011;11581;51.250;6.778;2022-10-29T15:08:02;10.70;;;3.00;;
22829;SDS011;11581;51.250;6.778;2022-10-29T15:10:30;11.98;;;3.03;;
22829;SDS011;11581;51.250;6.778;2022-10-29T15:12:57;9.48;;;2.50;;
22829;SDS011;11581;51.250;6.778;2022-10-29T15:15:39;5.70;;;2.47;;
22829;SDS011;11581;51.250;6.778;2022-10-29T15:18:20;12.75;;;2.97;;
22829;SDS011;11581;51.250;6.778;2022-10-29T15:20:48;9.98;;;3.38;;
22829;SDS011;11581;51.250;6.778;2022-10-29T15:23:21;13.38;;;2.67;;
22829;SDS011;11581;51.250;6.778;2022-10-29T15:25:53;9.23;;;2.83;;
22829;SDS011;11581;51.250;6.778;2022-10-29T15:28:26;8.27;;;2.97;;
22829;SDS011;11581;51.250;6.778;2022-10-29T15:30:55;12.15;;;3.42;;
22829;SDS011;11581;51.250;6.778;2022-10-29T15:33:28;9.75;;;3.45;;
22829;SDS011;11581;51.250;6.778;2022-10-29T15:35:57;10.32;;;3.30;;
22829;SDS011;11581;51.250;6.778;2022-10-29T15:41:44;7.65;;;3.03;;
22829;SDS011;11581;51.250;6.778;2022-10-29T15:44:28;9.10;;;3.55;;
22829;SDS011;11581;51.250;6.778;2022-10-29T15:46:57;9.25;;;3.70;;